Observation data for Friona on 01/12/2018      Previous  Date  Next       Current Mesonet Observations  Soil Data  Daily Summary Page  Observations in Plain Language
KFAS 120600Z 19001KT M09/M13 A3025 RMK A01 T10871134  RH  069%=      5-min Rain = 0
KFAS 120605Z 19001KT M09/M13 A3025 RMK A01 T10871130  RH  070%=      5-min Rain = 0
KFAS 120610Z 21002KT M09/M13 A3025 RMK A01 T10851130  RH  070%=      5-min Rain = 0
KFAS 120615Z 20003KT M08/M13 A3024 RMK A01 T10831127  RH  070%=      5-min Rain = 0
KFAS 120620Z 18003KT M08/M13 A3024 RMK A01 T10801126  RH  069%=      5-min Rain = 0
KFAS 120625Z 16003KT M08/M13 A3024 RMK A01 T10811126  RH  069%=      5-min Rain = 0
KFAS 120630Z 16003KT M08/M13 A3024 RMK A01 T10791125  RH  069%=      5-min Rain = 0
KFAS 120635Z 16003KT M08/M13 A3024 RMK A01 T10791128  RH  068%=      5-min Rain = 0
KFAS 120640Z 14003KT M08/M13 A3024 RMK A01 T10821129  RH  068%=      5-min Rain = 0
KFAS 120645Z 14003KT M08/M13 A3023 RMK A01 T10811125  RH  070%=      5-min Rain = 0
KFAS 120650Z 17002KT M08/M13 A3023 RMK A01 T10801126  RH  069%=      5-min Rain = 0
KFAS 120655Z 18002KT M08/M12 A3023 RMK A01 T10761120  RH  070%=      5-min Rain = 0
KFAS 120700Z 14001KT M07/M12 A3023 RMK A01 T10711117  RH  069%=      5-min Rain = 0
KFAS 120705Z 16001KT M08/M13 A3024 RMK A01 T10761125  RH  067%=      5-min Rain = 0
KFAS 120710Z 14001KT M08/M12 A3024 RMK A01 T10791123  RH  070%=      5-min Rain = 0
KFAS 120715Z 13001KT M08/M12 A3024 RMK A01 T10811116  RH  075%=      5-min Rain = 0
KFAS 120720Z 12001KT M08/M11 A3024 RMK A01 T10791111  RH  077%=      5-min Rain = 0
KFAS 120725Z 12001KT M08/M11 A3024 RMK A01 T10761108  RH  078%=      5-min Rain = 0
KFAS 120730Z 12001KT M08/M11 A3023 RMK A01 T10771111  RH  076%=      5-min Rain = 0
KFAS 120735Z 16001KT M08/M11 A3023 RMK A01 T10761111  RH  076%=      5-min Rain = 0
KFAS 120740Z 19002KT M08/M12 A3023 RMK A01 T10811124  RH  071%=      5-min Rain = 0
KFAS 120745Z 22002KT M09/M13 A3024 RMK A01 T10901129  RH  073%=      5-min Rain = 0
KFAS 120750Z 21004KT M08/M12 A3023 RMK A01 T10841124  RH  073%=      5-min Rain = 0
KFAS 120755Z 20006KT M09/M13 A3023 RMK A01 T10901134  RH  070%=      5-min Rain = 0
KFAS 120800Z 21004KT M10/M14 A3023 RMK A01 T10991135  RH  075%=      5-min Rain = 0
KFAS 120805Z 20003KT M09/M12 A3023 RMK A01 T10861116  RH  079%=      5-min Rain = 0
KFAS 120810Z 21002KT M08/M12 A3023 RMK A01 T10841123  RH  073%=      5-min Rain = 0
KFAS 120815Z 19002KT M09/M12 A3023 RMK A01 T10851115  RH  078%=      5-min Rain = 0
KFAS 120820Z 19002KT M08/M11 A3022 RMK A01 T10821111  RH  079%=      5-min Rain = 0
KFAS 120825Z 19003KT M08/M11 A3022 RMK A01 T10821112  RH  078%=      5-min Rain = 0
KFAS 120830Z 18004KT M08/M11 A3021 RMK A01 T10801112  RH  077%=      5-min Rain = 0
KFAS 120835Z 18005KT M08/M11 A3021 RMK A01 T10771113  RH  075%=      5-min Rain = 0
KFAS 120840Z 19005KT M08/M12 A3021 RMK A01 T10751118  RH  071%=      5-min Rain = 0
KFAS 120845Z 19007KT M08/M12 A3021 RMK A01 T10801122  RH  071%=      5-min Rain = 0
KFAS 120850Z 18008KT M08/M12 A3021 RMK A01 T10821120  RH  074%=      5-min Rain = 0
KFAS 120855Z 18007KT M09/M12 A302 RMK A01 T10851117  RH  077%=      5-min Rain = 0
KFAS 120900Z 19008KT M08/M11 A302 RMK A01 T10791109  RH  079%=      5-min Rain = 0
KFAS 120905Z 19008KT M08/M11 A302 RMK A01 T10781109  RH  078%=      5-min Rain = 0
KFAS 120910Z 19008KT M08/M11 A302 RMK A01 T10781111  RH  077%=      5-min Rain = 0
KFAS 120915Z 19008KT M08/M12 A302 RMK A01 T10831118  RH  076%=      5-min Rain = 0
KFAS 120920Z 19008KT M09/M12 A302 RMK A01 T10851119  RH  076%=      5-min Rain = 0
KFAS 120925Z 20008KT M09/M12 A302 RMK A01 T10851121  RH  075%=      5-min Rain = 0
KFAS 120930Z 20008KT M09/M12 A3019 RMK A01 T10871122  RH  075%=      5-min Rain = 0
KFAS 120935Z 20008KT M09/M12 A302 RMK A01 T10881121  RH  077%=      5-min Rain = 0
KFAS 120940Z 21009KT M09/M12 A302 RMK A01 T10851118  RH  077%=      5-min Rain = 0
KFAS 120945Z 21008KT M08/M12 A302 RMK A01 T10841117  RH  077%=      5-min Rain = 0
KFAS 120950Z 21009KT M08/M11 A302 RMK A01 T10781109  RH  078%=      5-min Rain = 0
KFAS 120955Z 20008KT M07/M11 A3019 RMK A01 T10741110  RH  075%=      5-min Rain = 0
KFAS 121000Z 21008KT M08/M11 A302 RMK A01 T10781114  RH  075%=      5-min Rain = 0
KFAS 121005Z 21008KT M08/M12 A302 RMK A01 T10831118  RH  076%=      5-min Rain = 0
KFAS 121010Z 21010KT M08/M12 A3019 RMK A01 T10841116  RH  077%=      5-min Rain = 0
KFAS 121015Z 21010KT M08/M11 A3019 RMK A01 T10801113  RH  077%=      5-min Rain = 0
KFAS 121020Z 21009KT M08/M11 A3019 RMK A01 T10781113  RH  076%=      5-min Rain = 0
KFAS 121025Z 21009KT M08/M11 A3019 RMK A01 T10771113  RH  075%=      5-min Rain = 0
KFAS 121030Z 21008KT M08/M12 A3019 RMK A01 T10801116  RH  075%=      5-min Rain = 0
KFAS 121035Z 21008KT M08/M12 A3019 RMK A01 T10821116  RH  076%=      5-min Rain = 0
KFAS 121040Z 21009KT M08/M12 A3019 RMK A01 T10811115  RH  076%=      5-min Rain = 0
KFAS 121045Z 21009KT M08/M12 A3018 RMK A01 T10801115  RH  076%=      5-min Rain = 0
KFAS 121050Z 20009KT M08/M11 A3018 RMK A01 T10791114  RH  075%=      5-min Rain = 0
KFAS 121055Z 20009KT M08/M12 A3018 RMK A01 T10821118  RH  074%=      5-min Rain = 0
KFAS 121100Z 20008KT M08/M12 A3018 RMK A01 T10811117  RH  075%=      5-min Rain = 0
KFAS 121105Z 20008KT M08/M12 A3018 RMK A01 T10841119  RH  076%=      5-min Rain = 0
KFAS 121110Z 20008KT M09/M12 A3018 RMK A01 T10881121  RH  076%=      5-min Rain = 0
KFAS 121115Z 20007KT M09/M12 A3018 RMK A01 T10901122  RH  077%=      5-min Rain = 0
KFAS 121120Z 21006KT M09/M12 A3019 RMK A01 T10901121  RH  078%=      5-min Rain = 0
KFAS 121125Z 21005KT M09/M12 A3019 RMK A01 T10871119  RH  078%=      5-min Rain = 0
KFAS 121130Z 22004KT M08/M12 A3019 RMK A01 T10841116  RH  077%=      5-min Rain = 0
KFAS 121135Z 22004KT M08/M11 A3019 RMK A01 T10801114  RH  076%=      5-min Rain = 0
KFAS 121140Z 21005KT M08/M11 A3019 RMK A01 T10751112  RH  074%=      5-min Rain = 0
KFAS 121145Z 21006KT M07/M11 A3019 RMK A01 T10691112  RH  071%=      5-min Rain = 0
KFAS 121150Z 20007KT M07/M12 A3018 RMK A01 T10721117  RH  070%=      5-min Rain = 0
KFAS 121155Z 20006KT M08/M12 A3018 RMK A01 T10801119  RH  073%=      5-min Rain = 0
KFAS 121200Z 20005KT M08/M11 A3018 RMK A01 T10781114  RH  075%=      5-min Rain = 0
KFAS 121205Z 20005KT M08/M11 A3018 RMK A01 T10751113  RH  074%=      5-min Rain = 0
KFAS 121210Z 19005KT M07/M11 A3017 RMK A01 T10731114  RH  072%=      5-min Rain = 0
KFAS 121215Z 19005KT M07/M12 A3018 RMK A01 T10721115  RH  071%=      5-min Rain = 0
KFAS 121220Z 19005KT M08/M12 A3018 RMK A01 T10761116  RH  073%=      5-min Rain = 0
KFAS 121225Z 19005KT M08/M12 A3018 RMK A01 T10801118  RH  073%=      5-min Rain = 0
KFAS 121230Z 20006KT M08/M12 A3017 RMK A01 T10821118  RH  075%=      5-min Rain = 0
KFAS 121235Z 21007KT M08/M12 A3017 RMK A01 T10831121  RH  074%=      5-min Rain = 0
KFAS 121240Z 22007KT M09/M13 A3017 RMK A01 T10901125  RH  075%=      5-min Rain = 0
KFAS 121245Z 21007KT M09/M13 A3017 RMK A01 T10921125  RH  077%=      5-min Rain = 0
KFAS 121250Z 20005KT M09/M12 A3017 RMK A01 T10921124  RH  077%=      5-min Rain = 0
KFAS 121255Z 19006KT M09/M12 A3017 RMK A01 T10851117  RH  077%=      5-min Rain = 0
KFAS 121300Z 20008KT M08/M12 A3017 RMK A01 T10811115  RH  076%=      5-min Rain = 0
KFAS 121305Z 21009KT M07/M10 A3017 RMK A01 T10691103  RH  076%=      5-min Rain = 0
KFAS 121310Z 21009KT M06/M10 A3018 RMK A01 T10611103  RH  072%=      5-min Rain = 0
KFAS 121315Z 21009KT M06/M10 A3017 RMK A01 T10581102  RH  071%=      5-min Rain = 0
KFAS 121320Z 21009KT M06/M10 A3017 RMK A01 T10571102  RH  070%=      5-min Rain = 0
KFAS 121325Z 21009KT M06/M10 A3017 RMK A01 T10561102  RH  070%=      5-min Rain = 0
KFAS 121330Z 21008KT M06/M10 A3017 RMK A01 T10551102  RH  069%=      5-min Rain = 0
KFAS 121335Z 21007KT M05/M10 A3017 RMK A01 T10531103  RH  068%=      5-min Rain = 0
KFAS 121340Z 20007KT M05/M10 A3017 RMK A01 T10531104  RH  067%=      5-min Rain = 0
KFAS 121345Z 20007KT M05/M10 A3017 RMK A01 T10521103  RH  067%=      5-min Rain = 0
KFAS 121350Z 20006KT M05/M10 A3017 RMK A01 T10501103  RH  067%=      5-min Rain = 0
KFAS 121355Z 20006KT M05/M10 A3018 RMK A01 T10501103  RH  066%=      5-min Rain = 0
KFAS 121400Z 20005KT M05/M10 A3018 RMK A01 T10501103  RH  066%=      5-min Rain = 0
KFAS 121405Z 20007KT M05/M10 A3018 RMK A01 T10501103  RH  066%=      5-min Rain = 0
KFAS 121410Z 21006KT M05/M10 A3019 RMK A01 T10501103  RH  066%=      5-min Rain = 0
KFAS 121415Z 20006KT M05/M10 A3019 RMK A01 T10501103  RH  066%=      5-min Rain = 0
KFAS 121420Z 19006KT M05/M10 A3019 RMK A01 T10491101  RH  067%=      5-min Rain = 0
KFAS 121425Z 19006KT M05/M10 A3019 RMK A01 T10461101  RH  065%=      5-min Rain = 0
KFAS 121430Z 19008KT M04/M10 A3019 RMK A01 T10431099  RH  065%=      5-min Rain = 0
KFAS 121435Z 19008KT M04/M10 A3019 RMK A01 T10421097  RH  065%=      5-min Rain = 0
KFAS 121440Z 20009KT M04/M10 A3018 RMK A01 T10411097  RH  065%=      5-min Rain = 0
KFAS 121445Z 20011KT M04/M10 A3018 RMK A01 T10381096  RH  064%=      5-min Rain = 0
KFAS 121450Z 20011KT M03/M10 A3018 RMK A01 T10341095  RH  063%=      5-min Rain = 0
KFAS 121455Z 20011KT M03/M10 A3018 RMK A01 T10311095  RH  061%=      5-min Rain = 0
KFAS 121500Z 19010KT M03/M09 A3018 RMK A01 T10281093  RH  061%=      5-min Rain = 0
KFAS 121505Z 20013G18KT M02/M09 A3018 RMK A01 T10241094  RH  058%=      5-min Rain = 0
KFAS 121510Z 20011KT M02/M09 A3018 RMK A01 T10221094  RH  058%=      5-min Rain = 0
KFAS 121515Z 20013KT M02/M09 A3017 RMK A01 T10171092  RH  057%=      5-min Rain = 0
KFAS 121520Z 19016KT M01/M09 A3016 RMK A01 T10141093  RH  055%=      5-min Rain = 0
KFAS 121525Z 19016G21KT M01/M09 A3016 RMK A01 T10111092  RH  054%=      5-min Rain = 0
KFAS 121530Z 19018G23KT M01/M09 A3015 RMK A01 T10081093  RH  052%=      5-min Rain = 0
KFAS 121535Z 19020G25KT M01/M09 A3014 RMK A01 T10051094  RH  051%=      5-min Rain = 0
KFAS 121540Z 19021G27KT M00/M09 A3014 RMK A01 T10041094  RH  050%=      5-min Rain = 0
KFAS 121545Z 19019G26KT M00/M09 A3014 RMK A01 T10021094  RH  050%=      5-min Rain = 0
KFAS 121550Z 19020G26KT 00/M09 A3015 RMK A01 T00011094  RH  049%=      5-min Rain = 0
KFAS 121555Z 19017G24KT 01/M09 A3016 RMK A01 T00051093  RH  047%=      5-min Rain = 0
KFAS 121600Z 19019G24KT 01/M10 A3016 RMK A01 T00081095  RH  046%=      5-min Rain = 0
KFAS 121605Z 19019G24KT 01/M09 A3016 RMK A01 T00111094  RH  045%=      5-min Rain = 0
KFAS 121610Z 19018G23KT 01/M10 A3016 RMK A01 T00121095  RH  045%=      5-min Rain = 0
KFAS 121615Z 19014G19KT 01/M10 A3017 RMK A01 T00131095  RH  044%=      5-min Rain = 0
KFAS 121620Z 19013KT 02/M09 A3018 RMK A01 T00151093  RH  044%=      5-min Rain = 0
KFAS 121625Z 19014KT 02/M09 A3018 RMK A01 T00201090  RH  044%=      5-min Rain = 0
KFAS 121630Z 19013G18KT 02/M09 A3018 RMK A01 T00241088  RH  043%=      5-min Rain = 0
KFAS 121635Z 19016KT 03/M09 A3018 RMK A01 T00281088  RH  042%=      5-min Rain = 0
KFAS 121640Z 19015KT 03/M09 A3017 RMK A01 T00331087  RH  041%=      5-min Rain = 0
KFAS 121645Z 20017KT 04/M09 A3017 RMK A01 T00361085  RH  041%=      5-min Rain = 0
KFAS 121650Z 20017KT 04/M08 A3017 RMK A01 T00391083  RH  041%=      5-min Rain = 0
KFAS 121655Z 20016KT 04/M08 A3017 RMK A01 T00431081  RH  040%=      5-min Rain = 0
KFAS 121700Z 20014KT 05/M08 A3017 RMK A01 T00461079  RH  040%=      5-min Rain = 0
KFAS 121705Z 20013KT 05/M08 A3017 RMK A01 T00521077  RH  039%=      5-min Rain = 0
KFAS 121710Z 20013KT 05/M08 A3016 RMK A01 T00531075  RH  039%=      5-min Rain = 0
KFAS 121715Z 21015KT 05/M07 A3016 RMK A01 T00521074  RH  040%=      5-min Rain = 0
KFAS 121720Z 20015G20KT 05/M07 A3016 RMK A01 T00531073  RH  040%=      5-min Rain = 0
KFAS 121725Z 20013KT 06/M07 A3015 RMK A01 T00581071  RH  039%=      5-min Rain = 0
KFAS 121730Z 20016KT 06/M07 A3015 RMK A01 T00611072  RH  038%=      5-min Rain = 0
KFAS 121735Z 20013KT 06/M07 A3014 RMK A01 T00611070  RH  039%=      5-min Rain = 0
KFAS 121740Z 21013G19KT 06/M07 A3014 RMK A01 T00631068  RH  038%=      5-min Rain = 0
KFAS 121745Z 21015G20KT 07/M07 A3014 RMK A01 T00671069  RH  037%=      5-min Rain = 0
KFAS 121750Z 20015KT 07/M07 A3014 RMK A01 T00671069  RH  037%=      5-min Rain = 0
KFAS 121755Z 20014G19KT 07/M07 A3013 RMK A01 T00671069  RH  037%=      5-min Rain = 0
KFAS 121800Z 21014KT 07/M07 A3013 RMK A01 T00701069  RH  037%=      5-min Rain = 0
KFAS 121805Z 21013KT 07/M07 A3013 RMK A01 T00721068  RH  036%=      5-min Rain = 0
KFAS 121810Z 20012KT 07/M07 A3012 RMK A01 T00741067  RH  036%=      5-min Rain = 0
KFAS 121815Z 20012KT 08/M07 A3012 RMK A01 T00771065  RH  036%=      5-min Rain = 0
KFAS 121820Z 20013KT 08/M07 A3012 RMK A01 T00801065  RH  035%=      5-min Rain = 0
KFAS 121825Z 20012KT 08/M06 A3011 RMK A01 T00811063  RH  036%=      5-min Rain = 0
KFAS 121830Z 19012G17KT 08/M06 A3011 RMK A01 T00841061  RH  035%=      5-min Rain = 0
KFAS 121835Z 20013KT 09/M06 A3011 RMK A01 T00871059  RH  035%=      5-min Rain = 0
KFAS 121840Z 20013KT 09/M06 A301 RMK A01 T00911058  RH  034%=      5-min Rain = 0
KFAS 121845Z 19011KT 09/M06 A301 RMK A01 T00931057  RH  034%=      5-min Rain = 0
KFAS 121850Z 20013G19KT 10/M06 A3009 RMK A01 T00951056  RH  034%=      5-min Rain = 0
KFAS 121855Z 19011KT 10/M06 A3009 RMK A01 T00991055  RH  033%=      5-min Rain = 0
KFAS 121900Z 19012G17KT 10/M05 A3008 RMK A01 T01011054  RH  033%=      5-min Rain = 0
KFAS 121905Z 21011KT 10/M05 A3008 RMK A01 T01021053  RH  033%=      5-min Rain = 0
KFAS 121910Z 21011G16KT 11/M05 A3008 RMK A01 T01051054  RH  032%=      5-min Rain = 0
KFAS 121915Z 21012KT 11/M06 A3008 RMK A01 T01091055  RH  031%=      5-min Rain = 0
KFAS 121920Z 21010G16KT 11/M05 A3007 RMK A01 T01091053  RH  032%=      5-min Rain = 0
KFAS 121925Z 22012KT 11/M05 A3008 RMK A01 T01111053  RH  031%=      5-min Rain = 0
KFAS 121930Z 22010G15KT 11/M05 A3007 RMK A01 T01121053  RH  031%=      5-min Rain = 0
KFAS 121935Z 22010KT 11/M05 A3007 RMK A01 T01141053  RH  031%=      5-min Rain = 0
KFAS 121940Z 22009KT 11/M05 A3007 RMK A01 T01141053  RH  031%=      5-min Rain = 0
KFAS 121945Z 21008G13KT 12/M05 A3006 RMK A01 T01181053  RH  030%=      5-min Rain = 0
KFAS 121950Z 22009KT 12/M06 A3006 RMK A01 T01191055  RH  029%=      5-min Rain = 0
KFAS 121955Z 21010KT 12/M06 A3006 RMK A01 T01191055  RH  029%=      5-min Rain = 0
KFAS 122000Z 23008KT 12/M06 A3005 RMK A01 T01231056  RH  028%=      5-min Rain = 0
KFAS 122005Z 23006G11KT 12/M06 A3005 RMK A01 T01241056  RH  028%=      5-min Rain = 0
KFAS 122010Z 24007G12KT 13/M06 A3005 RMK A01 T01251058  RH  027%=      5-min Rain = 0
KFAS 122015Z 21007KT 13/M06 A3005 RMK A01 T01271057  RH  027%=      5-min Rain = 0
KFAS 122020Z 22005KT 13/M06 A3005 RMK A01 T01291056  RH  027%=      5-min Rain = 0
KFAS 122025Z 20006KT 13/M06 A3005 RMK A01 T01311056  RH  027%=      5-min Rain = 0
KFAS 122030Z 22006KT 13/M06 A3005 RMK A01 T01331057  RH  026%=      5-min Rain = 0
KFAS 122035Z 20004KT 14/M06 A3005 RMK A01 T01361057  RH  026%=      5-min Rain = 0
KFAS 122040Z 18006KT 14/M06 A3004 RMK A01 T01381056  RH  026%=      5-min Rain = 0
KFAS 122045Z 19005KT 14/M06 A3004 RMK A01 T01371057  RH  025%=      5-min Rain = 0
KFAS 122050Z 15004KT 14/M06 A3004 RMK A01 T01401057  RH  025%=      5-min Rain = 0
KFAS 122055Z 16004KT 14/M06 A3004 RMK A01 T01431058  RH  024%=      5-min Rain = 0
KFAS 122100Z 16004KT 15/M06 A3004 RMK A01 T01451058  RH  024%=      5-min Rain = 0
KFAS 122105Z 17005KT 15/M06 A3004 RMK A01 T01471059  RH  024%=      5-min Rain = 0
KFAS 122110Z 14005KT 15/M06 A3004 RMK A01 T01481059  RH  023%=      5-min Rain = 0
KFAS 122115Z 15006KT 15/M06 A3004 RMK A01 T01491059  RH  023%=      5-min Rain = 0
KFAS 122120Z 15006KT 15/M06 A3004 RMK A01 T01491061  RH  023%=      5-min Rain = 0
KFAS 122125Z 14007KT 15/M06 A3004 RMK A01 T01521058  RH  023%=      5-min Rain = 0
KFAS 122130Z 15007KT 15/M06 A3004 RMK A01 T01531060  RH  023%=      5-min Rain = 0
KFAS 122135Z 13006KT 15/M06 A3004 RMK A01 T01531059  RH  023%=      5-min Rain = 0
KFAS 122140Z 13007KT 15/M06 A3004 RMK A01 T01531060  RH  023%=      5-min Rain = 0
KFAS 122145Z 13005KT 15/M06 A3004 RMK A01 T01541060  RH  022%=      5-min Rain = 0
KFAS 122150Z 13006KT 15/M06 A3004 RMK A01 T01541060  RH  022%=      5-min Rain = 0
KFAS 122155Z 12006KT 16/M06 A3004 RMK A01 T01551060  RH  022%=      5-min Rain = 0
KFAS 122200Z 12006KT 15/M06 A3004 RMK A01 T01541061  RH  022%=      5-min Rain = 0
KFAS 122205Z 13006KT 15/M06 A3005 RMK A01 T01531062  RH  022%=      5-min Rain = 0
KFAS 122210Z 11005KT 15/M06 A3005 RMK A01 T01541062  RH  022%=      5-min Rain = 0
KFAS 122215Z 09005G10KT 15/M06 A3005 RMK A01 T01531061  RH  022%=      5-min Rain = 0
KFAS 122220Z 11009KT 15/M06 A3005 RMK A01 T01531056  RH  023%=      5-min Rain = 0
KFAS 122225Z 12010KT 15/M06 A3006 RMK A01 T01511057  RH  023%=      5-min Rain = 0
KFAS 122230Z 13011KT 15/M06 A3006 RMK A01 T01491058  RH  024%=      5-min Rain = 0
KFAS 122235Z 12010KT 15/M06 A3006 RMK A01 T01471058  RH  024%=      5-min Rain = 0
KFAS 122240Z 12014KT 14/M06 A3006 RMK A01 T01431060  RH  024%=      5-min Rain = 0
KFAS 122245Z 13013KT 14/M06 A3006 RMK A01 T01381061  RH  025%=      5-min Rain = 0
KFAS 122250Z 13014G19KT 14/M06 A3006 RMK A01 T01371063  RH  024%=      5-min Rain = 0
KFAS 122255Z 13016KT 13/M07 A3006 RMK A01 T01301067  RH  025%=      5-min Rain = 0
KFAS 122300Z 13012KT 13/M07 A3006 RMK A01 T01261066  RH  026%=      5-min Rain = 0
KFAS 122305Z 13012KT 12/M07 A3006 RMK A01 T01241067  RH  026%=      5-min Rain = 0
KFAS 122310Z 13014KT 12/M07 A3007 RMK A01 T01211069  RH  026%=      5-min Rain = 0
KFAS 122315Z 13012KT 12/M07 A3007 RMK A01 T01181069  RH  026%=      5-min Rain = 0
KFAS 122320Z 14011KT 12/M07 A3007 RMK A01 T01171069  RH  027%=      5-min Rain = 0
KFAS 122325Z 14011KT 12/M07 A3008 RMK A01 T01151069  RH  027%=      5-min Rain = 0
KFAS 122330Z 13011KT 11/M07 A3008 RMK A01 T01121071  RH  027%=      5-min Rain = 0
KFAS 122335Z 14011KT 11/M07 A3008 RMK A01 T01081072  RH  028%=      5-min Rain = 0
KFAS 122340Z 13011KT 11/M07 A3008 RMK A01 T01051072  RH  028%=      5-min Rain = 0
KFAS 122345Z 13011KT 10/M07 A3008 RMK A01 T01011073  RH  029%=      5-min Rain = 0
KFAS 122350Z 13012KT 10/M07 A3009 RMK A01 T00981074  RH  029%=      5-min Rain = 0
KFAS 122355Z 12010KT 09/M08 A3009 RMK A01 T00941076  RH  029%=      5-min Rain = 0
KFAS 130000Z 11009KT 09/M08 A301 RMK A01 T00881076  RH  030%=      5-min Rain = 0
KFAS 130005Z 11009KT 08/M08 A3011 RMK A01 T00841076  RH  031%=      5-min Rain = 0
KFAS 130010Z 10010KT 08/M08 A3011 RMK A01 T00811078  RH  032%=      5-min Rain = 0
KFAS 130015Z 10009KT 08/M08 A3012 RMK A01 T00781079  RH  032%=      5-min Rain = 0
KFAS 130020Z 11011KT 08/M08 A3012 RMK A01 T00781080  RH  032%=      5-min Rain = 0
KFAS 130025Z 12010G15KT 08/M08 A3013 RMK A01 T00771081  RH  032%=      5-min Rain = 0
KFAS 130030Z 12012KT 08/M08 A3013 RMK A01 T00771082  RH  031%=      5-min Rain = 0
KFAS 130035Z 12011KT 08/M08 A3014 RMK A01 T00751083  RH  031%=      5-min Rain = 0
KFAS 130040Z 10009KT 07/M08 A3015 RMK A01 T00711084  RH  032%=      5-min Rain = 0
KFAS 130045Z 09010KT 07/M09 A3015 RMK A01 T00691085  RH  032%=      5-min Rain = 0
KFAS 130050Z 06011KT 06/M09 A3017 RMK A01 T00631085  RH  033%=      5-min Rain = 0
KFAS 130055Z 06010KT 05/M08 A3017 RMK A01 T00531084  RH  037%=      5-min Rain = 0
KFAS 130100Z 08010KT 05/M09 A3017 RMK A01 T00481085  RH  038%=      5-min Rain = 0
KFAS 130105Z 08009KT 05/M09 A3018 RMK A01 T00481086  RH  037%=      5-min Rain = 0
KFAS 130110Z 09008KT 05/M09 A3019 RMK A01 T00451087  RH  038%=      5-min Rain = 0
KFAS 130115Z 07009KT 04/M09 A3019 RMK A01 T00431087  RH  038%=      5-min Rain = 0
KFAS 130120Z 08009KT 04/M09 A302 RMK A01 T00411087  RH  039%=      5-min Rain = 0
KFAS 130125Z 10011KT 04/M09 A302 RMK A01 T00431087  RH  038%=      5-min Rain = 0
KFAS 130130Z 11012KT 05/M09 A3021 RMK A01 T00501088  RH  036%=      5-min Rain = 0
KFAS 130135Z 06011KT 05/M09 A3022 RMK A01 T00501087  RH  036%=      5-min Rain = 0
KFAS 130140Z 07010KT 05/M09 A3023 RMK A01 T00461088  RH  037%=      5-min Rain = 0
KFAS 130145Z 10008KT 04/M09 A3022 RMK A01 T00411089  RH  038%=      5-min Rain = 0
KFAS 130150Z 08009KT 04/M09 A3023 RMK A01 T00401091  RH  038%=      5-min Rain = 0
KFAS 130155Z 09009KT 03/M09 A3023 RMK A01 T00341091  RH  040%=      5-min Rain = 0
KFAS 130200Z 09008KT 03/M09 A3023 RMK A01 T00321091  RH  040%=      5-min Rain = 0
KFAS 130205Z 11010KT 03/M09 A3023 RMK A01 T00331089  RH  040%=      5-min Rain = 0
KFAS 130210Z 10009KT 04/M09 A3023 RMK A01 T00351088  RH  040%=      5-min Rain = 0
KFAS 130215Z 09007KT 04/M09 A3024 RMK A01 T00381088  RH  039%=      5-min Rain = 0
KFAS 130220Z 09008KT 04/M09 A3025 RMK A01 T00381087  RH  039%=      5-min Rain = 0
KFAS 130225Z 10009KT 04/M09 A3025 RMK A01 T00401087  RH  039%=      5-min Rain = 0
KFAS 130230Z 09009KT 04/M09 A3026 RMK A01 T00411088  RH  038%=      5-min Rain = 0
KFAS 130235Z 08008KT 04/M09 A3027 RMK A01 T00411088  RH  038%=      5-min Rain = 0
KFAS 130240Z 09009KT 04/M09 A3027 RMK A01 T00391090  RH  038%=      5-min Rain = 0
KFAS 130245Z 10008KT 04/M09 A3028 RMK A01 T00391090  RH  038%=      5-min Rain = 0
KFAS 130250Z 11010KT 04/M09 A3028 RMK A01 T00401091  RH  038%=      5-min Rain = 0
KFAS 130255Z 10009KT 04/M09 A3028 RMK A01 T00401093  RH  037%=      5-min Rain = 0
KFAS 130300Z 11008KT 04/M09 A3028 RMK A01 T00401094  RH  037%=      5-min Rain = 0
KFAS 130305Z 10008KT 04/M09 A3029 RMK A01 T00391094  RH  037%=      5-min Rain = 0
KFAS 130310Z 10008KT 04/M09 A3029 RMK A01 T00381094  RH  037%=      5-min Rain = 0
KFAS 130315Z 10008KT 04/M09 A303 RMK A01 T00371094  RH  037%=      5-min Rain = 0
KFAS 130320Z 08008KT 04/M09 A3031 RMK A01 T00361094  RH  038%=      5-min Rain = 0
KFAS 130325Z 08010KT 03/M10 A3031 RMK A01 T00331096  RH  038%=      5-min Rain = 0
KFAS 130330Z 07009KT 03/M10 A3032 RMK A01 T00301098  RH  038%=      5-min Rain = 0
KFAS 130335Z 07010KT 03/M10 A3032 RMK A01 T00261098  RH  039%=      5-min Rain = 0
KFAS 130340Z 06010KT 02/M10 A3033 RMK A01 T00191099  RH  041%=      5-min Rain = 0
KFAS 130345Z 06009KT 01/M10 A3034 RMK A01 T00121102  RH  042%=      5-min Rain = 0
KFAS 130350Z 05009KT 01/M10 A3035 RMK A01 T00091103  RH  043%=      5-min Rain = 0
KFAS 130355Z 04010KT 01/M11 A3036 RMK A01 T00081105  RH  042%=      5-min Rain = 0
KFAS 130400Z 06013KT 01/M11 A3036 RMK A01 T00081107  RH  042%=      5-min Rain = 0
KFAS 130405Z 07014KT 01/M11 A3036 RMK A01 T00081110  RH  041%=      5-min Rain = 0
KFAS 130410Z 08013KT 01/M11 A3036 RMK A01 T00071112  RH  040%=      5-min Rain = 0
KFAS 130415Z 07011KT 01/M11 A3036 RMK A01 T00051112  RH  041%=      5-min Rain = 0
KFAS 130420Z 07008KT 00/M11 A3037 RMK A01 T00031113  RH  041%=      5-min Rain = 0
KFAS 130425Z 07008KT 00/11 A3037 RMK A01 T00000-111  RH  043%=      5-min Rain = 0
KFAS 130430Z 08008KT M00/M11 A3037 RMK A01 T10011113  RH  042%=      5-min Rain = 0
KFAS 130435Z 07008KT M00/M12 A3037 RMK A01 T10031115  RH  042%=      5-min Rain = 0
KFAS 130440Z 07006KT M01/M12 A3037 RMK A01 T10071115  RH  044%=      5-min Rain = 0
KFAS 130445Z 06006KT M01/M12 A3037 RMK A01 T10111116  RH  044%=      5-min Rain = 0
KFAS 130450Z 06006KT M02/M12 A3038 RMK A01 T10151117  RH  045%=      5-min Rain = 0
KFAS 130455Z 07007KT M02/M12 A3038 RMK A01 T10181116  RH  047%=      5-min Rain = 0
KFAS 130500Z 06007KT M02/M12 A3038 RMK A01 T10201118  RH  047%=      5-min Rain = 0
KFAS 130505Z 07007KT M02/M12 A3038 RMK A01 T10241118  RH  048%=      5-min Rain = 0
KFAS 130510Z 06008KT M03/M12 A3038 RMK A01 T10261119  RH  049%=      5-min Rain = 0
KFAS 130515Z 06009KT M03/M12 A3039 RMK A01 T10271120  RH  049%=      5-min Rain = 0
KFAS 130520Z 06009KT M03/M12 A3039 RMK A01 T10281122  RH  048%=      5-min Rain = 0
KFAS 130525Z 06008KT M03/M12 A304 RMK A01 T10301123  RH  048%=      5-min Rain = 0
KFAS 130530Z 06006KT M03/M13 A304 RMK A01 T10321125  RH  048%=      5-min Rain = 0
KFAS 130535Z 05005KT M04/M13 A3041 RMK A01 T10351127  RH  049%=      5-min Rain = 0
KFAS 130540Z 05005KT M04/M13 A3041 RMK A01 T10371125  RH  050%=      5-min Rain = 0
KFAS 130545Z 05004KT M04/M12 A3041 RMK A01 T10401124  RH  052%=      5-min Rain = 0
KFAS 130550Z 03004KT M04/M12 A3041 RMK A01 T10391122  RH  052%=      5-min Rain = 0
KFAS 130555Z 03005KT M04/M12 A3041 RMK A01 T10381123  RH  051%=      5-min Rain = 0

Page generated in 0.0289 seconds.